sensor_id;sensor_type;location;lat;lon;timestamp;pressure;altitude;pressure_sealevel;temperature;humidity
74045;BME280;62389;51.412;5.436;2022-12-29T00:02:02;100007.91;;;9.13;95.93
74045;BME280;62389;51.412;5.436;2022-12-29T00:04:27;100011.63;;;9.09;96.34
74045;BME280;62389;51.412;5.436;2022-12-29T00:06:52;100018.41;;;9.12;96.36
74045;BME280;62389;51.412;5.436;2022-12-29T00:09:18;100016.22;;;9.04;97.61
74045;BME280;62389;51.412;5.436;2022-12-29T00:11:44;100008.53;;;9.01;98.14
74045;BME280;62389;51.412;5.436;2022-12-29T00:14:11;100001.69;;;8.98;97.68
74045;BME280;62389;51.412;5.436;2022-12-29T00:16:55;99998.25;;;8.98;97.98
74045;BME280;62389;51.412;5.436;2022-12-29T00:19:20;99997.50;;;8.96;98.35
74045;BME280;62389;51.412;5.436;2022-12-29T00:22:05;99980.16;;;8.95;99.31
74045;BME280;62389;51.412;5.436;2022-12-29T00:24:49;99974.00;;;8.96;99.34
74045;BME280;62389;51.412;5.436;2022-12-29T00:27:30;99960.13;;;8.95;99.14
74045;BME280;62389;51.412;5.436;2022-12-29T00:30:19;99963.50;;;8.97;99.33
74045;BME280;62389;51.412;5.436;2022-12-29T00:33:11;99960.06;;;8.97;99.89
74045;BME280;62389;51.412;5.436;2022-12-29T00:36:04;99964.28;;;8.99;99.74
74045;BME280;62389;51.412;5.436;2022-12-29T00:38:32;99960.06;;;8.97;99.96
74045;BME280;62389;51.412;5.436;2022-12-29T00:41:18;99959.91;;;9.00;100.00
74045;BME280;62389;51.412;5.436;2022-12-29T00:44:03;99957.22;;;9.01;100.00
74045;BME280;62389;51.412;5.436;2022-12-29T00:46:34;99949.38;;;9.01;99.90
74045;BME280;62389;51.412;5.436;2022-12-29T00:49:01;99945.00;;;9.02;100.00
74045;BME280;62389;51.412;5.436;2022-12-29T00:51:46;99942.41;;;9.02;99.88
74045;BME280;62389;51.412;5.436;2022-12-29T00:54:12;99955.34;;;9.03;99.89
74045;BME280;62389;51.412;5.436;2022-12-29T00:56:38;99954.38;;;9.06;100.00
74045;BME280;62389;51.412;5.436;2022-12-29T00:59:05;99933.50;;;9.06;100.00
74045;BME280;62389;51.412;5.436;2022-12-29T01:01:32;99928.28;;;9.06;100.00
74045;BME280;62389;51.412;5.436;2022-12-29T01:03:57;99919.53;;;9.07;99.78
74045;BME280;62389;51.412;5.436;2022-12-29T01:06:23;99930.75;;;9.09;99.77
74045;BME280;62389;51.412;5.436;2022-12-29T01:08:50;99914.31;;;9.07;99.50
74045;BME280;62389;51.412;5.436;2022-12-29T01:11:35;99908.34;;;9.05;99.37
74045;BME280;62389;51.412;5.436;2022-12-29T01:14:01;99905.03;;;9.01;99.42
74045;BME280;62389;51.412;5.436;2022-12-29T01:16:26;99910.34;;;9.00;99.16
74045;BME280;62389;51.412;5.436;2022-12-29T01:18:52;99921.53;;;9.02;99.35
74045;BME280;62389;51.412;5.436;2022-12-29T01:21:17;99921.53;;;9.02;99.46
74045;BME280;62389;51.412;5.436;2022-12-29T01:23:42;99925.66;;;9.06;98.49
74045;BME280;62389;51.412;5.436;2022-12-29T01:26:12;99928.97;;;9.10;98.37
74045;BME280;62389;51.412;5.436;2022-12-29T01:28:37;99916.91;;;9.07;98.15
74045;BME280;62389;51.412;5.436;2022-12-29T01:31:05;99910.88;;;9.06;97.91
74045;BME280;62389;51.412;5.436;2022-12-29T01:33:31;99903.88;;;9.07;97.86
74045;BME280;62389;51.412;5.436;2022-12-29T01:36:04;99901.97;;;9.11;96.91
74045;BME280;62389;51.412;5.436;2022-12-29T01:38:30;99901.81;;;9.14;96.70
74045;BME280;62389;51.412;5.436;2022-12-29T01:40:56;99892.97;;;9.16;97.00
74045;BME280;62389;51.412;5.436;2022-12-29T01:43:21;99915.69;;;9.14;96.79
74045;BME280;62389;51.412;5.436;2022-12-29T01:46:03;99898.19;;;9.16;96.22
74045;BME280;62389;51.412;5.436;2022-12-29T01:48:28;99897.94;;;9.21;95.70
74045;BME280;62389;51.412;5.436;2022-12-29T01:50:54;99885.66;;;9.23;95.17
74045;BME280;62389;51.412;5.436;2022-12-29T01:53:27;99903.66;;;9.27;95.08
74045;BME280;62389;51.412;5.436;2022-12-29T01:55:59;99901.50;;;9.36;94.31
74045;BME280;62389;51.412;5.436;2022-12-29T01:58:30;99896.69;;;9.44;94.12
74045;BME280;62389;51.412;5.436;2022-12-29T02:00:57;99900.78;;;9.49;93.13
74045;BME280;62389;51.412;5.436;2022-12-29T02:03:24;99900.44;;;9.55;92.80
74045;BME280;62389;51.412;5.436;2022-12-29T02:05:55;99902.59;;;9.63;92.39
74045;BME280;62389;51.412;5.436;2022-12-29T02:08:25;99913.66;;;9.68;91.84
74045;BME280;62389;51.412;5.436;2022-12-29T02:10:51;99910.78;;;9.73;91.57
74045;BME280;62389;51.412;5.436;2022-12-29T02:13:17;99917.78;;;9.72;91.61
74045;BME280;62389;51.412;5.436;2022-12-29T02:21:36;99908.59;;;9.81;91.17
74045;BME280;62389;51.412;5.436;2022-12-29T02:30:03;99913.00;;;9.80;91.53
74045;BME280;62389;51.412;5.436;2022-12-29T02:40:25;99908.25;;;9.71;91.63
74045;BME280;62389;51.412;5.436;2022-12-29T02:43:39;99876.78;;;9.74;90.50
74045;BME280;62389;51.412;5.436;2022-12-29T02:46:20;99884.75;;;9.71;91.11
74045;BME280;62389;51.412;5.436;2022-12-29T02:49:00;99877.94;;;9.69;91.30
74045;BME280;62389;51.412;5.436;2022-12-29T02:51:43;99879.53;;;9.71;90.96
74045;BME280;62389;51.412;5.436;2022-12-29T02:54:09;99870.88;;;9.71;90.67
74045;BME280;62389;51.412;5.436;2022-12-29T02:56:53;99868.16;;;9.72;90.77
74045;BME280;62389;51.412;5.436;2022-12-29T02:59:19;99871.63;;;9.73;89.63
74045;BME280;62389;51.412;5.436;2022-12-29T03:13:37;99871.72;;;9.71;90.36
74045;BME280;62389;51.412;5.436;2022-12-29T03:16:44;99863.97;;;9.70;90.74
74045;BME280;62389;51.412;5.436;2022-12-29T03:19:35;99865.75;;;9.69;90.90
74045;BME280;62389;51.412;5.436;2022-12-29T03:22:13;99861.50;;;9.67;90.24
74045;BME280;62389;51.412;5.436;2022-12-29T03:25:01;99859.34;;;9.59;91.20
74045;BME280;62389;51.412;5.436;2022-12-29T03:27:30;99864.97;;;9.51;91.71
74045;BME280;62389;51.412;5.436;2022-12-29T03:30:02;99856.78;;;9.42;92.67
74045;BME280;62389;51.412;5.436;2022-12-29T03:32:33;99853.34;;;9.41;91.69
74045;BME280;62389;51.412;5.436;2022-12-29T03:35:00;99862.50;;;9.32;91.98
74045;BME280;62389;51.412;5.436;2022-12-29T03:37:31;99861.84;;;9.29;92.10
74045;BME280;62389;51.412;5.436;2022-12-29T03:39:59;99861.66;;;9.32;91.80
74045;BME280;62389;51.412;5.436;2022-12-29T03:42:27;99860.84;;;9.31;91.92
74045;BME280;62389;51.412;5.436;2022-12-29T03:44:56;99863.59;;;9.28;92.41
74045;BME280;62389;51.412;5.436;2022-12-29T03:47:22;99856.19;;;9.21;92.82
74045;BME280;62389;51.412;5.436;2022-12-29T03:49:49;99851.22;;;9.16;92.08
74045;BME280;62389;51.412;5.436;2022-12-29T03:52:15;99858.44;;;9.11;92.26
74045;BME280;62389;51.412;5.436;2022-12-29T03:54:41;99867.34;;;9.07;92.33
74045;BME280;62389;51.412;5.436;2022-12-29T03:57:07;99873.59;;;9.04;92.41
74045;BME280;62389;51.412;5.436;2022-12-29T03:59:33;99884.09;;;9.03;92.29
74045;BME280;62389;51.412;5.436;2022-12-29T04:01:58;99886.69;;;9.03;92.22
74045;BME280;62389;51.412;5.436;2022-12-29T04:04:23;99885.63;;;9.07;92.22
74045;BME280;62389;51.412;5.436;2022-12-29T04:06:49;99897.72;;;9.08;92.14
74045;BME280;62389;51.412;5.436;2022-12-29T04:09:14;99887.03;;;8.97;92.92
74045;BME280;62389;51.412;5.436;2022-12-29T04:11:39;99874.41;;;8.89;93.41
74045;BME280;62389;51.412;5.436;2022-12-29T04:14:05;99884.28;;;8.82;93.04
74045;BME280;62389;51.412;5.436;2022-12-29T04:16:30;99890.06;;;8.72;93.17
74045;BME280;62389;51.412;5.436;2022-12-29T04:18:55;99888.75;;;8.63;93.47
74045;BME280;62389;51.412;5.436;2022-12-29T04:21:21;99909.78;;;8.60;93.81
74045;BME280;62389;51.412;5.436;2022-12-29T04:23:46;99894.44;;;8.54;93.32
74045;BME280;62389;51.412;5.436;2022-12-29T04:26:12;99908.31;;;8.54;93.08
74045;BME280;62389;51.412;5.436;2022-12-29T04:28:37;99904.16;;;8.50;93.45
74045;BME280;62389;51.412;5.436;2022-12-29T04:31:03;99908.53;;;8.50;92.27
74045;BME280;62389;51.412;5.436;2022-12-29T04:33:29;99891.91;;;8.52;92.36
74045;BME280;62389;51.412;5.436;2022-12-29T04:35:55;99897.34;;;8.48;91.81
74045;BME280;62389;51.412;5.436;2022-12-29T04:38:22;99902.63;;;8.46;91.60
74045;BME280;62389;51.412;5.436;2022-12-29T04:40:48;99905.16;;;8.48;91.30
74045;BME280;62389;51.412;5.436;2022-12-29T04:43:14;99905.00;;;8.51;90.67
74045;BME280;62389;51.412;5.436;2022-12-29T04:45:46;99923.03;;;8.55;89.89
74045;BME280;62389;51.412;5.436;2022-12-29T04:48:12;99913.31;;;8.59;89.17
74045;BME280;62389;51.412;5.436;2022-12-29T04:50:37;99931.31;;;8.64;88.60
74045;BME280;62389;51.412;5.436;2022-12-29T04:53:03;99923.41;;;8.65;89.05
74045;BME280;62389;51.412;5.436;2022-12-29T04:55:28;99924.47;;;8.61;88.81
74045;BME280;62389;51.412;5.436;2022-12-29T04:57:54;99932.31;;;8.61;89.10
74045;BME280;62389;51.412;5.436;2022-12-29T05:00:19;99947.34;;;8.56;89.22
74045;BME280;62389;51.412;5.436;2022-12-29T05:02:45;99934.59;;;8.50;89.89
74045;BME280;62389;51.412;5.436;2022-12-29T05:05:10;99958.06;;;8.50;89.44
74045;BME280;62389;51.412;5.436;2022-12-29T05:07:36;99947.72;;;8.48;89.69
74045;BME280;62389;51.412;5.436;2022-12-29T05:10:01;99950.16;;;8.51;90.13
74045;BME280;62389;51.412;5.436;2022-12-29T05:12:34;99964.34;;;8.46;89.90
74045;BME280;62389;51.412;5.436;2022-12-29T05:15:00;99958.59;;;8.39;90.06
74045;BME280;62389;51.412;5.436;2022-12-29T05:17:26;99967.38;;;8.37;90.47
74045;BME280;62389;51.412;5.436;2022-12-29T05:19:51;99955.16;;;8.39;91.00
74045;BME280;62389;51.412;5.436;2022-12-29T05:22:17;99964.47;;;8.43;91.04
74045;BME280;62389;51.412;5.436;2022-12-29T05:24:42;99958.38;;;8.44;91.39
74045;BME280;62389;51.412;5.436;2022-12-29T05:27:07;99959.13;;;8.46;90.88
74045;BME280;62389;51.412;5.436;2022-12-29T05:29:33;99969.09;;;8.55;90.29
74045;BME280;62389;51.412;5.436;2022-12-29T05:31:58;99955.91;;;8.58;89.92
74045;BME280;62389;51.412;5.436;2022-12-29T05:34:24;99958.38;;;8.61;89.05
74045;BME280;62389;51.412;5.436;2022-12-29T05:36:49;99961.72;;;8.63;88.16
74045;BME280;62389;51.412;5.436;2022-12-29T05:39:15;99964.94;;;8.68;88.50
74045;BME280;62389;51.412;5.436;2022-12-29T05:41:40;99970.13;;;8.70;88.16
74045;BME280;62389;51.412;5.436;2022-12-29T05:44:05;99991.38;;;8.79;87.50
74045;BME280;62389;51.412;5.436;2022-12-29T05:46:31;99984.38;;;8.80;87.18
74045;BME280;62389;51.412;5.436;2022-12-29T05:48:57;99982.69;;;8.79;87.99
74045;BME280;62389;51.412;5.436;2022-12-29T05:51:22;99980.00;;;8.80;87.73
74045;BME280;62389;51.412;5.436;2022-12-29T05:53:47;100005.00;;;8.85;87.03
74045;BME280;62389;51.412;5.436;2022-12-29T05:56:13;99995.50;;;8.84;87.69
74045;BME280;62389;51.412;5.436;2022-12-29T05:58:38;99992.81;;;8.85;87.20
74045;BME280;62389;51.412;5.436;2022-12-29T06:01:03;99993.66;;;8.86;87.19
74045;BME280;62389;51.412;5.436;2022-12-29T06:03:29;99996.78;;;8.92;85.57
74045;BME280;62389;51.412;5.436;2022-12-29T06:05:54;100007.84;;;8.97;86.04
74045;BME280;62389;51.412;5.436;2022-12-29T06:08:19;100003.41;;;8.99;86.04
74045;BME280;62389;51.412;5.436;2022-12-29T06:10:45;99998.84;;;9.03;84.78
74045;BME280;62389;51.412;5.436;2022-12-29T06:13:10;99989.25;;;9.03;85.59
74045;BME280;62389;51.412;5.436;2022-12-29T06:15:36;99988.38;;;9.04;85.63
74045;BME280;62389;51.412;5.436;2022-12-29T06:18:01;99989.81;;;9.10;84.01
74045;BME280;62389;51.412;5.436;2022-12-29T06:20:26;99992.56;;;9.07;84.45
74045;BME280;62389;51.412;5.436;2022-12-29T06:22:52;99990.75;;;9.09;84.52
74045;BME280;62389;51.412;5.436;2022-12-29T06:25:17;99994.72;;;9.16;83.01
74045;BME280;62389;51.412;5.436;2022-12-29T06:27:43;99990.19;;;9.20;82.54
74045;BME280;62389;51.412;5.436;2022-12-29T06:30:09;99987.59;;;9.20;83.60
74045;BME280;62389;51.412;5.436;2022-12-29T06:32:36;99997.59;;;9.27;83.67
74045;BME280;62389;51.412;5.436;2022-12-29T06:35:03;99991.41;;;9.30;83.75
74045;BME280;62389;51.412;5.436;2022-12-29T06:37:29;99988.09;;;9.26;83.59
74045;BME280;62389;51.412;5.436;2022-12-29T06:39:54;99996.84;;;9.25;83.42
74045;BME280;62389;51.412;5.436;2022-12-29T06:42:20;99989.97;;;9.24;83.28
74045;BME280;62389;51.412;5.436;2022-12-29T06:44:45;99998.69;;;9.23;83.35
74045;BME280;62389;51.412;5.436;2022-12-29T06:47:10;99990.00;;;9.23;83.65
74045;BME280;62389;51.412;5.436;2022-12-29T06:49:36;99992.47;;;9.26;81.35
74045;BME280;62389;51.412;5.436;2022-12-29T06:52:01;99988.09;;;9.26;82.33
74045;BME280;62389;51.412;5.436;2022-12-29T06:54:29;99993.47;;;9.23;83.69
74045;BME280;62389;51.412;5.436;2022-12-29T06:56:55;99988.50;;;9.19;82.84
74045;BME280;62389;51.412;5.436;2022-12-29T06:59:20;99991.34;;;9.14;82.65
74045;BME280;62389;51.412;5.436;2022-12-29T07:01:46;99998.47;;;9.11;82.66
74045;BME280;62389;51.412;5.436;2022-12-29T07:04:11;100000.03;;;9.15;81.63
74045;BME280;62389;51.412;5.436;2022-12-29T07:06:36;100006.41;;;9.09;81.62
74045;BME280;62389;51.412;5.436;2022-12-29T07:09:02;100004.69;;;9.08;81.48
74045;BME280;62389;51.412;5.436;2022-12-29T07:11:27;100007.16;;;9.11;80.99
74045;BME280;62389;51.412;5.436;2022-12-29T07:13:53;100016.97;;;9.06;80.01
74045;BME280;62389;51.412;5.436;2022-12-29T07:16:18;100014.66;;;9.17;79.09
74045;BME280;62389;51.412;5.436;2022-12-29T07:18:44;100018.34;;;9.13;79.66
74045;BME280;62389;51.412;5.436;2022-12-29T07:21:09;100023.72;;;9.10;79.97
74045;BME280;62389;51.412;5.436;2022-12-29T07:23:34;100023.72;;;9.10;79.46
74045;BME280;62389;51.412;5.436;2022-12-29T07:26:01;100018.66;;;9.07;79.44
74045;BME280;62389;51.412;5.436;2022-12-29T07:28:27;100032.53;;;9.07;79.20
74045;BME280;62389;51.412;5.436;2022-12-29T07:30:52;100031.56;;;9.10;78.07
74045;BME280;62389;51.412;5.436;2022-12-29T07:33:18;100042.28;;;9.21;78.33
74045;BME280;62389;51.412;5.436;2022-12-29T07:35:43;100033.53;;;9.22;76.87
74045;BME280;62389;51.412;5.436;2022-12-29T07:38:08;100044.44;;;9.30;76.85
74045;BME280;62389;51.412;5.436;2022-12-29T07:40:34;100047.97;;;9.29;78.19
74045;BME280;62389;51.412;5.436;2022-12-29T07:42:59;100045.41;;;9.28;77.87
74045;BME280;62389;51.412;5.436;2022-12-29T07:45:24;100047.88;;;9.31;77.08
74045;BME280;62389;51.412;5.436;2022-12-29T07:47:50;100028.06;;;9.27;77.90
74045;BME280;62389;51.412;5.436;2022-12-29T07:50:15;100043.66;;;9.28;77.57
74045;BME280;62389;51.412;5.436;2022-12-29T07:52:41;100032.47;;;9.26;77.54
74045;BME280;62389;51.412;5.436;2022-12-29T07:55:06;100039.22;;;9.30;77.59
74045;BME280;62389;51.412;5.436;2022-12-29T07:57:32;100036.84;;;9.26;77.68
74045;BME280;62389;51.412;5.436;2022-12-29T07:59:58;100032.31;;;9.29;77.74
74045;BME280;62389;51.412;5.436;2022-12-29T08:02:23;100044.56;;;9.27;77.20
74045;BME280;62389;51.412;5.436;2022-12-29T08:04:51;100051.41;;;9.30;76.09
74045;BME280;62389;51.412;5.436;2022-12-29T08:07:16;100053.84;;;9.33;77.25
74045;BME280;62389;51.412;5.436;2022-12-29T08:09:41;100045.13;;;9.34;76.10
74045;BME280;62389;51.412;5.436;2022-12-29T08:12:09;100046.72;;;9.37;75.12
74045;BME280;62389;51.412;5.436;2022-12-29T08:14:35;100053.63;;;9.38;75.56
74045;BME280;62389;51.412;5.436;2022-12-29T08:17:01;100051.63;;;9.43;74.94
74045;BME280;62389;51.412;5.436;2022-12-29T08:19:26;100069.84;;;9.44;75.19
74045;BME280;62389;51.412;5.436;2022-12-29T08:21:52;100070.72;;;9.43;75.42
74045;BME280;62389;51.412;5.436;2022-12-29T08:24:18;100075.13;;;9.43;75.60
74045;BME280;62389;51.412;5.436;2022-12-29T08:26:43;100074.44;;;9.39;75.73
74045;BME280;62389;51.412;5.436;2022-12-29T08:29:09;100081.25;;;9.42;75.24
74045;BME280;62389;51.412;5.436;2022-12-29T08:31:34;100079.41;;;9.44;75.76
74045;BME280;62389;51.412;5.436;2022-12-29T08:34:00;100079.25;;;9.47;76.42
74045;BME280;62389;51.412;5.436;2022-12-29T08:36:26;100073.72;;;9.53;75.07
74045;BME280;62389;51.412;5.436;2022-12-29T08:38:52;100082.25;;;9.56;74.85
74045;BME280;62389;51.412;5.436;2022-12-29T08:41:17;100072.81;;;9.54;74.99
74045;BME280;62389;51.412;5.436;2022-12-29T08:43:48;100080.66;;;9.54;74.69
74045;BME280;62389;51.412;5.436;2022-12-29T08:46:15;100078.19;;;9.51;75.48
74045;BME280;62389;51.412;5.436;2022-12-29T08:48:40;100072.03;;;9.52;75.93
74045;BME280;62389;51.412;5.436;2022-12-29T08:51:06;100073.44;;;9.59;74.19
74045;BME280;62389;51.412;5.436;2022-12-29T08:53:31;100080.47;;;9.57;74.54
74045;BME280;62389;51.412;5.436;2022-12-29T08:55:58;100072.56;;;9.58;73.11
74045;BME280;62389;51.412;5.436;2022-12-29T08:58:25;100085.56;;;9.60;73.99
74045;BME280;62389;51.412;5.436;2022-12-29T09:00:55;100079.25;;;9.64;73.84
74045;BME280;62389;51.412;5.436;2022-12-29T09:03:21;100085.97;;;9.68;73.49
74045;BME280;62389;51.412;5.436;2022-12-29T09:05:48;100074.78;;;9.66;73.14
74045;BME280;62389;51.412;5.436;2022-12-29T09:08:14;100081.69;;;9.67;72.61
74045;BME280;62389;51.412;5.436;2022-12-29T09:10:40;100075.16;;;9.76;72.51
74045;BME280;62389;51.412;5.436;2022-12-29T09:13:05;100091.00;;;9.89;71.64
74045;BME280;62389;51.412;5.436;2022-12-29T09:15:30;100096.59;;;9.98;72.96
74045;BME280;62389;51.412;5.436;2022-12-29T09:17:56;100088.50;;;10.03;72.94
74045;BME280;62389;51.412;5.436;2022-12-29T09:20:21;100103.75;;;9.95;72.59
74045;BME280;62389;51.412;5.436;2022-12-29T09:22:47;100098.84;;;9.89;72.51
74045;BME280;62389;51.412;5.436;2022-12-29T09:25:13;100098.09;;;9.86;73.38
74045;BME280;62389;51.412;5.436;2022-12-29T09:27:39;100096.41;;;9.85;72.54
74045;BME280;62389;51.412;5.436;2022-12-29T09:30:05;100102.84;;;9.78;73.70
74045;BME280;62389;51.412;5.436;2022-12-29T09:32:31;100122.16;;;9.76;74.30
74045;BME280;62389;51.412;5.436;2022-12-29T09:34:57;100114.69;;;9.68;76.10
74045;BME280;62389;51.412;5.436;2022-12-29T09:37:22;100126.06;;;9.67;75.72
74045;BME280;62389;51.412;5.436;2022-12-29T09:39:48;100121.94;;;9.63;75.92
74045;BME280;62389;51.412;5.436;2022-12-29T09:47:34;100139.97;;;9.33;79.63
74045;BME280;62389;51.412;5.436;2022-12-29T09:50:32;100150.19;;;9.20;79.31
74045;BME280;62389;51.412;5.436;2022-12-29T09:53:05;100146.78;;;9.18;79.71
74045;BME280;62389;51.412;5.436;2022-12-29T09:55:50;100151.16;;;9.18;79.59
74045;BME280;62389;51.412;5.436;2022-12-29T10:01:04;100173.91;;;9.16;79.26
74045;BME280;62389;51.412;5.436;2022-12-29T10:03:49;100176.41;;;9.17;80.18
74045;BME280;62389;51.412;5.436;2022-12-29T10:06:17;100193.34;;;9.08;81.51
74045;BME280;62389;51.412;5.436;2022-12-29T10:20:16;100213.56;;;8.86;83.33
74045;BME280;62389;51.412;5.436;2022-12-29T10:25:39;100201.84;;;8.76;85.15
74045;BME280;62389;51.412;5.436;2022-12-29T10:28:17;100214.19;;;8.72;84.61
74045;BME280;62389;51.412;5.436;2022-12-29T10:30:46;100224.81;;;8.68;84.18
74045;BME280;62389;51.412;5.436;2022-12-29T10:33:17;100235.25;;;8.68;83.74
74045;BME280;62389;51.412;5.436;2022-12-29T10:35:44;100234.28;;;8.70;84.70
74045;BME280;62389;51.412;5.436;2022-12-29T10:38:13;100250.84;;;8.69;85.44
74045;BME280;62389;51.412;5.436;2022-12-29T10:43:43;100254.56;;;8.64;84.88
74045;BME280;62389;51.412;5.436;2022-12-29T10:46:12;100258.66;;;8.69;85.53
74045;BME280;62389;51.412;5.436;2022-12-29T10:48:39;100275.28;;;8.67;86.13
74045;BME280;62389;51.412;5.436;2022-12-29T10:51:06;100256.31;;;8.63;85.83
74045;BME280;62389;51.412;5.436;2022-12-29T10:53:40;100262.59;;;8.59;86.44
74045;BME280;62389;51.412;5.436;2022-12-29T10:56:25;100265.06;;;8.62;86.06
74045;BME280;62389;51.412;5.436;2022-12-29T10:58:54;100260.34;;;8.70;84.60
74045;BME280;62389;51.412;5.436;2022-12-29T11:01:24;100281.94;;;8.74;84.07
74045;BME280;62389;51.412;5.436;2022-12-29T11:04:03;100273.63;;;8.85;82.92
74045;BME280;62389;51.412;5.436;2022-12-29T11:06:31;100285.25;;;8.96;83.49
74045;BME280;62389;51.412;5.436;2022-12-29T11:09:00;100292.91;;;9.18;82.07
74045;BME280;62389;51.412;5.436;2022-12-29T11:11:32;100298.06;;;9.20;81.62
74045;BME280;62389;51.412;5.436;2022-12-29T11:16:33;100300.31;;;9.27;81.26
74045;BME280;62389;51.412;5.436;2022-12-29T11:19:00;100286.28;;;9.30;81.43
74045;BME280;62389;51.412;5.436;2022-12-29T11:21:38;100295.59;;;9.36;81.56
74045;BME280;62389;51.412;5.436;2022-12-29T11:24:27;100290.75;;;9.64;80.80
74045;BME280;62389;51.412;5.436;2022-12-29T11:26:55;100298.19;;;9.72;79.55
74045;BME280;62389;51.412;5.436;2022-12-29T11:29:26;100295.81;;;9.67;79.89
74045;BME280;62389;51.412;5.436;2022-12-29T11:31:57;100300.72;;;9.73;80.97
74045;BME280;62389;51.412;5.436;2022-12-29T11:37:00;100302.50;;;9.73;81.40
74045;BME280;62389;51.412;5.436;2022-12-29T11:39:40;100304.88;;;9.60;80.96
74045;BME280;62389;51.412;5.436;2022-12-29T11:42:15;100311.16;;;9.56;80.66
74045;BME280;62389;51.412;5.436;2022-12-29T11:44:43;100299.78;;;9.57;79.18
74045;BME280;62389;51.412;5.436;2022-12-29T11:47:19;100314.91;;;9.50;81.03
74045;BME280;62389;51.412;5.436;2022-12-29T11:49:50;100316.72;;;9.48;79.94
74045;BME280;62389;51.412;5.436;2022-12-29T11:52:22;100324.50;;;9.50;80.21
74045;BME280;62389;51.412;5.436;2022-12-29T11:54:48;100319.28;;;9.50;79.61
74045;BME280;62389;51.412;5.436;2022-12-29T11:57:16;100320.88;;;9.52;79.59
74045;BME280;62389;51.412;5.436;2022-12-29T11:59:55;100329.56;;;9.53;80.14
74045;BME280;62389;51.412;5.436;2022-12-29T12:02:40;100332.97;;;9.55;80.53
74045;BME280;62389;51.412;5.436;2022-12-29T12:05:37;100324.97;;;9.58;79.86
74045;BME280;62389;51.412;5.436;2022-12-29T12:11:24;100314.09;;;9.67;77.78
74045;BME280;62389;51.412;5.436;2022-12-29T12:16:25;100322.88;;;9.83;76.80
74045;BME280;62389;51.412;5.436;2022-12-29T12:18:56;100319.56;;;9.80;77.04
74045;BME280;62389;51.412;5.436;2022-12-29T12:21:30;100316.25;;;9.76;76.65
74045;BME280;62389;51.412;5.436;2022-12-29T12:26:39;100334.63;;;9.75;74.53
74045;BME280;62389;51.412;5.436;2022-12-29T12:29:22;100321.47;;;9.76;75.22
74045;BME280;62389;51.412;5.436;2022-12-29T12:31:55;100325.78;;;9.77;75.21
74045;BME280;62389;51.412;5.436;2022-12-29T12:37:06;100333.09;;;9.88;75.17
74045;BME280;62389;51.412;5.436;2022-12-29T12:42:53;100339.09;;;9.90;75.19
74045;BME280;62389;51.412;5.436;2022-12-29T12:48:13;100345.47;;;9.84;75.02
74045;BME280;62389;51.412;5.436;2022-12-29T12:53:56;100339.47;;;9.82;74.53
74045;BME280;62389;51.412;5.436;2022-12-29T13:04:37;100343.19;;;9.59;77.57
74045;BME280;62389;51.412;5.436;2022-12-29T13:07:28;100345.00;;;9.57;78.08
74045;BME280;62389;51.412;5.436;2022-12-29T13:21:00;100362.25;;;9.43;79.32
74045;BME280;62389;51.412;5.436;2022-12-29T13:29:05;100380.97;;;8.94;83.84
74045;BME280;62389;51.412;5.436;2022-12-29T13:34:43;100381.50;;;8.62;85.98
74045;BME280;62389;51.412;5.436;2022-12-29T13:37:17;100384.47;;;8.54;87.14
74045;BME280;62389;51.412;5.436;2022-12-29T13:40:10;100380.38;;;8.48;87.20
74045;BME280;62389;51.412;5.436;2022-12-29T13:42:38;100380.56;;;8.44;88.77
74045;BME280;62389;51.412;5.436;2022-12-29T13:45:15;100393.09;;;8.34;89.38
74045;BME280;62389;51.412;5.436;2022-12-29T13:47:49;100394.31;;;8.25;90.27
74045;BME280;62389;51.412;5.436;2022-12-29T13:50:20;100398.78;;;8.22;89.49
74045;BME280;62389;51.412;5.436;2022-12-29T13:53:24;100397.16;;;8.19;90.41
74045;BME280;62389;51.412;5.436;2022-12-29T13:56:04;100382.69;;;8.12;89.10
74045;BME280;62389;51.412;5.436;2022-12-29T13:58:39;100394.13;;;8.08;91.30
74045;BME280;62389;51.412;5.436;2022-12-29T14:01:16;100397.41;;;8.13;90.01
74045;BME280;62389;51.412;5.436;2022-12-29T14:03:47;100403.53;;;8.12;90.54
74045;BME280;62389;51.412;5.436;2022-12-29T14:08:42;100392.13;;;8.37;89.69
74045;BME280;62389;51.412;5.436;2022-12-29T14:11:10;100399.16;;;8.35;89.50
74045;BME280;62389;51.412;5.436;2022-12-29T14:13:41;100409.69;;;8.31;88.83
74045;BME280;62389;51.412;5.436;2022-12-29T14:16:22;100409.69;;;8.31;89.46
74045;BME280;62389;51.412;5.436;2022-12-29T14:18:49;100414.78;;;8.35;89.14
74045;BME280;62389;51.412;5.436;2022-12-29T14:21:23;100406.03;;;8.36;88.38
74045;BME280;62389;51.412;5.436;2022-12-29T14:23:53;100411.16;;;8.39;89.23
74045;BME280;62389;51.412;5.436;2022-12-29T14:28:53;100398.00;;;8.42;88.43
74045;BME280;62389;51.412;5.436;2022-12-29T14:41:59;100405.56;;;8.48;87.10
74045;BME280;62389;51.412;5.436;2022-12-29T14:44:25;100421.38;;;8.43;87.41
74045;BME280;62389;51.412;5.436;2022-12-29T14:49:24;100421.59;;;8.39;87.23
74045;BME280;62389;51.412;5.436;2022-12-29T14:51:52;100427.69;;;8.38;87.11
74045;BME280;62389;51.412;5.436;2022-12-29T14:57:02;100433.06;;;8.33;86.89
74045;BME280;62389;51.412;5.436;2022-12-29T14:59:29;100426.88;;;8.36;86.56
74045;BME280;62389;51.412;5.436;2022-12-29T15:01:57;100440.09;;;8.31;87.43
74045;BME280;62389;51.412;5.436;2022-12-29T15:04:30;100425.25;;;8.33;86.74
74045;BME280;62389;51.412;5.436;2022-12-29T15:06:56;100430.78;;;8.25;87.07
74045;BME280;62389;51.412;5.436;2022-12-29T15:09:28;100446.22;;;8.30;85.95
74045;BME280;62389;51.412;5.436;2022-12-29T15:12:11;100451.63;;;8.25;86.43
74045;BME280;62389;51.412;5.436;2022-12-29T15:14:52;100453.31;;;8.26;86.40
74045;BME280;62389;51.412;5.436;2022-12-29T15:17:44;100460.47;;;8.21;87.32
74045;BME280;62389;51.412;5.436;2022-12-29T15:20:30;100465.81;;;8.18;87.09
74045;BME280;62389;51.412;5.436;2022-12-29T15:23:02;100461.66;;;8.13;85.64
74045;BME280;62389;51.412;5.436;2022-12-29T15:25:30;100467.72;;;8.13;86.53
74045;BME280;62389;51.412;5.436;2022-12-29T15:28:01;100477.53;;;8.07;86.87
74045;BME280;62389;51.412;5.436;2022-12-29T15:30:28;100470.59;;;8.07;86.54